createdAt,value
2018-11-02T00:00:44.500Z,14.50
2018-11-02T00:03:14.040Z,14.50
2018-11-02T00:05:44.576Z,14.50
2018-11-02T00:08:14.362Z,14.50
2018-11-02T00:10:44.256Z,14.50
2018-11-02T00:13:13.911Z,14.50
2018-11-02T00:15:44.603Z,14.40
2018-11-02T00:18:14.842Z,14.40
2018-11-02T00:20:44.540Z,14.40
2018-11-02T00:23:14.428Z,14.40
2018-11-02T00:25:44.058Z,14.30
2018-11-02T00:28:13.648Z,14.20
2018-11-02T00:30:43.229Z,14.10
2018-11-02T00:33:12.828Z,14.10
2018-11-02T00:35:42.810Z,14.00
2018-11-02T00:38:12.615Z,13.90
2018-11-02T00:40:42.570Z,13.90
2018-11-02T00:43:12.918Z,13.80
2018-11-02T00:45:42.711Z,13.80
2018-11-02T00:48:12.173Z,13.80
2018-11-02T00:50:41.802Z,13.80
2018-11-02T00:53:11.386Z,13.70
2018-11-02T00:55:40.930Z,13.70
2018-11-02T00:58:10.639Z,13.70
2018-11-02T01:00:40.310Z,13.60
2018-11-02T01:03:10.148Z,13.60
2018-11-02T01:05:40.254Z,13.60
2018-11-02T01:08:10.412Z,13.60
2018-11-02T01:10:40.813Z,13.50
2018-11-02T01:13:10.962Z,13.50
2018-11-02T01:15:40.742Z,13.40
2018-11-02T01:18:10.982Z,13.40
2018-11-02T01:20:40.695Z,13.40
2018-11-02T01:23:10.310Z,13.30
2018-11-02T01:25:40.023Z,13.30
2018-11-02T01:28:09.561Z,13.20
2018-11-02T01:30:39.876Z,13.10
2018-11-02T01:33:09.321Z,13.10
2018-11-02T01:35:38.971Z,13.10
2018-11-02T01:38:08.689Z,13.10
2018-11-02T01:40:39.345Z,13.00
2018-11-02T01:43:08.754Z,13.00
2018-11-02T01:45:38.322Z,13.00
2018-11-02T01:48:07.896Z,12.90
2018-11-02T01:50:37.592Z,12.90
2018-11-02T01:53:07.430Z,12.90
2018-11-02T01:55:36.957Z,12.90
2018-11-02T01:58:07.034Z,12.90
2018-11-02T02:00:36.846Z,12.80
2018-11-02T02:03:06.765Z,12.80
2018-11-02T02:05:36.510Z,12.80
2018-11-02T02:08:06.452Z,12.70
2018-11-02T02:10:36.013Z,12.70
2018-11-02T02:13:06.332Z,12.80
2018-11-02T02:15:35.802Z,12.80
2018-11-02T02:18:05.608Z,12.70
2018-11-02T02:20:35.301Z,12.70
2018-11-02T02:23:05.037Z,12.70
2018-11-02T02:25:34.731Z,12.70
2018-11-02T02:28:04.496Z,12.70
2018-11-02T02:30:34.204Z,12.70
2018-11-02T02:33:03.859Z,12.70
2018-11-02T02:35:33.443Z,12.70
2018-11-02T02:38:03.040Z,12.70
2018-11-02T02:40:32.752Z,12.70
2018-11-02T02:43:02.411Z,12.70
2018-11-02T02:45:32.131Z,12.70
2018-11-02T02:48:02.370Z,12.70
2018-11-02T02:50:31.982Z,12.70
2018-11-02T02:53:01.970Z,12.70
2018-11-02T02:55:31.607Z,12.60
2018-11-02T02:58:01.159Z,12.60
2018-11-02T03:00:30.962Z,12.60
2018-11-02T03:03:00.507Z,12.60
2018-11-02T03:05:30.185Z,12.60
2018-11-02T03:08:00.150Z,12.60
2018-11-02T03:10:29.887Z,12.60
2018-11-02T03:12:59.444Z,12.70
2018-11-02T03:15:30.701Z,12.70
2018-11-02T03:18:00.432Z,12.80
2018-11-02T03:20:30.214Z,12.90
2018-11-02T03:23:00.004Z,13.00
2018-11-02T03:25:29.670Z,13.10
2018-11-02T03:27:59.778Z,13.30
2018-11-02T03:30:29.554Z,13.30
2018-11-02T03:32:59.117Z,13.50
2018-11-02T03:35:29.056Z,13.50
2018-11-02T03:37:59.231Z,13.60
2018-11-02T03:40:28.952Z,13.70
2018-11-02T03:42:58.657Z,13.80
2018-11-02T03:45:28.682Z,13.90
2018-11-02T03:47:58.255Z,13.90
2018-11-02T03:50:28.324Z,14.00
2018-11-02T03:52:57.915Z,14.10
2018-11-02T03:55:27.540Z,14.20
2018-11-02T03:57:57.231Z,14.20
2018-11-02T04:00:26.747Z,14.20
2018-11-02T04:02:56.541Z,14.30
2018-11-02T04:05:26.118Z,14.30
2018-11-02T04:07:55.844Z,14.40
2018-11-02T04:10:25.553Z,14.40
2018-11-02T04:12:55.669Z,14.40
2018-11-02T04:15:25.885Z,14.40
2018-11-02T04:17:55.476Z,14.40
2018-11-02T04:20:25.093Z,14.50
2018-11-02T04:22:54.733Z,14.50
2018-11-02T04:25:24.878Z,14.50
2018-11-02T04:27:54.463Z,14.50
2018-11-02T04:30:24.196Z,14.50
2018-11-02T04:32:54.874Z,14.50
2018-11-02T04:35:24.435Z,14.50
2018-11-02T04:37:54.860Z,14.40
2018-11-02T04:40:24.504Z,14.40
2018-11-02T04:42:54.242Z,14.40
2018-11-02T04:45:43.297Z,14.40
2018-11-02T04:48:13.450Z,14.20
2018-11-02T04:50:43.638Z,14.20
2018-11-02T04:53:13.398Z,14.20
2018-11-02T04:55:43.582Z,14.20
2018-11-02T04:58:13.233Z,14.20
2018-11-02T05:00:42.835Z,14.20
2018-11-02T05:03:12.657Z,14.20
2018-11-02T05:05:42.338Z,14.20
2018-11-02T05:08:11.897Z,14.10
2018-11-02T05:10:41.760Z,14.10
2018-11-02T05:13:11.510Z,14.10
2018-11-02T05:15:41.096Z,14.00
2018-11-02T05:18:10.779Z,14.00
2018-11-02T05:20:40.330Z,14.00
2018-11-02T05:23:10.185Z,14.00
2018-11-02T05:25:39.896Z,13.90
2018-11-02T05:28:09.445Z,13.90
2018-11-02T05:30:40.182Z,13.90
2018-11-02T05:33:10.098Z,13.90
2018-11-02T05:35:40.110Z,13.80
2018-11-02T05:38:09.965Z,13.80
2018-11-02T05:40:39.558Z,13.80
2018-11-02T05:43:09.272Z,13.80
2018-11-02T05:45:38.979Z,13.70
2018-11-02T05:48:08.754Z,13.70
2018-11-02T05:50:38.324Z,13.70
2018-11-02T05:53:08.002Z,13.60
2018-11-02T05:55:37.429Z,13.60
2018-11-02T05:58:07.013Z,13.60
2018-11-02T06:00:36.617Z,13.60
2018-11-02T06:03:06.555Z,13.60
2018-11-02T06:05:36.151Z,13.50
2018-11-02T06:08:05.790Z,13.50
2018-11-02T06:10:35.101Z,13.50
2018-11-02T06:13:04.548Z,13.50
2018-11-02T06:15:34.058Z,13.50
2018-11-02T06:18:03.631Z,13.50
2018-11-02T06:20:33.309Z,13.50
2018-11-02T06:23:02.801Z,13.50
2018-11-02T06:25:32.211Z,13.50
2018-11-02T06:28:01.639Z,13.50
2018-11-02T06:30:31.145Z,13.50
2018-11-02T06:33:00.510Z,13.60
2018-11-02T06:35:30.250Z,13.60
2018-11-02T06:37:59.791Z,13.60
2018-11-02T06:40:29.224Z,13.60
2018-11-02T06:42:58.831Z,13.60
2018-11-02T06:45:28.325Z,13.60
2018-11-02T06:47:57.761Z,13.70
2018-11-02T06:50:27.285Z,13.70
2018-11-02T06:52:56.652Z,13.70
2018-11-02T06:55:26.233Z,13.70
2018-11-02T06:57:55.641Z,13.80
2018-11-02T07:00:25.156Z,13.80
2018-11-02T07:02:54.593Z,13.80
2018-11-02T07:05:24.018Z,13.90
2018-11-02T07:07:53.617Z,13.90
2018-11-02T07:10:22.955Z,14.00
2018-11-02T07:12:52.352Z,14.00
2018-11-02T07:15:21.812Z,14.10
2018-11-02T07:17:51.234Z,14.20
2018-11-02T07:20:20.913Z,14.30
2018-11-02T07:22:50.568Z,14.40
2018-11-02T07:25:20.029Z,14.50
2018-11-02T07:27:49.414Z,14.60
2018-11-02T07:30:18.826Z,14.60
2018-11-02T07:32:48.368Z,14.70
2018-11-02T07:35:17.805Z,14.80
2018-11-02T07:37:47.296Z,14.80
2018-11-02T07:40:16.696Z,14.90
2018-11-02T07:42:46.303Z,14.90
2018-11-02T07:45:15.736Z,15.00
2018-11-02T07:47:45.258Z,15.10
2018-11-02T07:50:14.625Z,15.20
2018-11-02T07:52:44.380Z,15.20
2018-11-02T07:55:15.004Z,15.30
2018-11-02T07:57:44.439Z,15.40
2018-11-02T08:00:16.225Z,15.50
2018-11-02T08:02:46.726Z,15.50
2018-11-02T08:05:16.634Z,15.60
2018-11-02T08:07:46.072Z,15.70
2018-11-02T08:10:15.583Z,15.70
2018-11-02T08:12:45.073Z,15.80
2018-11-02T08:15:14.481Z,15.90
2018-11-02T08:17:43.981Z,16.00
2018-11-02T08:20:13.971Z,16.00
2018-11-02T08:22:43.982Z,16.10
2018-11-02T08:25:13.691Z,16.20
2018-11-02T08:27:43.258Z,16.30
2018-11-02T08:30:12.797Z,16.40
2018-11-02T08:32:42.267Z,16.50
2018-11-02T08:35:13.350Z,16.60
2018-11-02T08:37:43.268Z,16.60
2018-11-02T08:40:14.159Z,16.70
2018-11-02T08:42:44.038Z,16.80
2018-11-02T08:45:13.450Z,16.80
2018-11-02T08:47:43.057Z,16.90
2018-11-02T08:50:13.064Z,17.00
2018-11-02T08:52:42.834Z,17.00
2018-11-02T08:55:12.309Z,17.10
2018-11-02T08:57:41.885Z,17.10
2018-11-02T09:00:13.115Z,17.20
2018-11-02T09:02:42.539Z,17.20
2018-11-02T09:05:12.199Z,17.40
2018-11-02T09:07:41.554Z,17.50
2018-11-02T09:10:12.339Z,17.60
2018-11-02T09:12:41.936Z,17.70
2018-11-02T09:15:11.411Z,17.80
2018-11-02T09:17:40.825Z,17.90
2018-11-02T09:20:10.295Z,18.00
2018-11-02T09:22:39.865Z,18.00
2018-11-02T09:25:10.419Z,18.10
2018-11-02T09:27:39.800Z,18.10
2018-11-02T09:30:14.778Z,18.10
2018-11-02T09:32:45.037Z,18.20
2018-11-02T09:35:15.192Z,18.20
2018-11-02T09:37:44.819Z,18.30
2018-11-02T09:40:14.284Z,18.30
2018-11-02T09:42:43.868Z,18.30
2018-11-02T09:45:14.461Z,18.40
2018-11-02T09:47:44.393Z,18.40
2018-11-02T09:50:13.994Z,18.40
2018-11-02T09:52:43.431Z,18.50
2018-11-02T09:55:14.689Z,18.50
2018-11-02T09:57:45.000Z,18.60
2018-11-02T10:00:15.106Z,18.60
2018-11-02T10:02:44.612Z,18.70
2018-11-02T10:05:14.119Z,18.70
2018-11-02T10:07:43.655Z,18.80
2018-11-02T10:10:13.569Z,18.80
2018-11-02T10:12:43.086Z,18.80
2018-11-02T10:15:14.307Z,18.90
2018-11-02T10:17:43.725Z,18.90
2018-11-02T10:20:13.459Z,18.90
2018-11-02T10:22:43.785Z,18.90
2018-11-02T10:25:13.391Z,18.90
2018-11-02T10:27:44.031Z,19.00
2018-11-02T10:30:14.617Z,19.00
2018-11-02T10:32:48.731Z,19.00
2018-11-02T10:35:18.279Z,19.00
2018-11-02T10:37:48.518Z,19.00
2018-11-02T10:40:19.019Z,19.00
2018-11-02T10:42:54.637Z,19.00
2018-11-02T10:45:28.456Z,19.00
2018-11-02T10:47:59.021Z,19.00
2018-11-02T10:50:28.469Z,18.90
2018-11-02T10:52:58.062Z,18.90
2018-11-02T10:55:27.757Z,19.00
2018-11-02T10:57:57.444Z,19.00
2018-11-02T11:00:32.198Z,19.00
2018-11-02T11:03:02.238Z,19.00
2018-11-02T11:08:08.425Z,19.00
2018-11-02T11:10:37.914Z,19.10
2018-11-02T11:13:08.207Z,19.10
2018-11-02T11:15:37.440Z,19.10
2018-11-02T11:18:07.293Z,19.10
2018-11-02T11:20:36.817Z,19.10
2018-11-02T11:23:06.660Z,19.10
2018-11-02T11:25:36.153Z,19.00
2018-11-02T11:28:06.066Z,19.00
2018-11-02T11:30:35.665Z,19.00
2018-11-02T11:33:05.142Z,18.90
2018-11-02T11:35:34.641Z,18.90
2018-11-02T11:38:04.229Z,18.90
2018-11-02T11:40:33.732Z,18.90
2018-11-02T11:43:03.342Z,18.90
2018-11-02T11:45:32.778Z,18.80
2018-11-02T11:48:02.338Z,18.80
2018-11-02T11:50:31.779Z,18.80
2018-11-02T11:53:01.265Z,18.80
2018-11-02T11:55:30.708Z,18.80
2018-11-02T11:58:00.184Z,18.80
2018-11-02T12:00:29.622Z,18.80
2018-11-02T12:02:59.139Z,18.80
2018-11-02T12:05:28.659Z,18.80
2018-11-02T12:07:58.241Z,18.80
2018-11-02T12:10:27.949Z,18.70
2018-11-02T12:12:57.344Z,18.60
2018-11-02T12:15:26.833Z,18.60
2018-11-02T12:17:56.324Z,18.60
2018-11-02T12:20:27.975Z,18.60
2018-11-02T12:23:01.722Z,18.60
2018-11-02T12:25:31.372Z,18.70
2018-11-02T12:28:00.828Z,18.70
2018-11-02T12:30:30.444Z,18.60
2018-11-02T12:32:59.901Z,18.60
2018-11-02T12:35:29.941Z,18.60
2018-11-02T12:37:59.506Z,18.50
2018-11-02T12:40:29.154Z,18.60
2018-11-02T12:42:58.816Z,18.50
2018-11-02T12:45:28.490Z,18.60
2018-11-02T12:47:58.312Z,18.60
2018-11-02T12:50:28.921Z,18.60
2018-11-02T12:52:59.714Z,18.60
2018-11-02T12:55:29.254Z,18.60
2018-11-02T12:57:59.053Z,18.60
2018-11-02T13:00:29.233Z,18.60
2018-11-02T13:02:58.881Z,18.70
2018-11-02T13:05:28.502Z,18.70
2018-11-02T13:07:57.972Z,18.70
2018-11-02T13:10:28.443Z,18.80
2018-11-02T13:12:57.872Z,18.80
2018-11-02T13:15:27.378Z,18.80
2018-11-02T13:17:56.951Z,18.90
2018-11-02T13:20:26.571Z,18.90
2018-11-02T13:22:56.109Z,19.00
2018-11-02T13:25:25.620Z,19.00
2018-11-02T13:27:55.042Z,18.90
2018-11-02T13:30:24.589Z,18.90
2018-11-02T13:32:54.194Z,18.90
2018-11-02T13:35:23.610Z,18.90
2018-11-02T13:37:53.228Z,18.90
2018-11-02T13:40:22.736Z,18.90
2018-11-02T13:42:52.366Z,18.90
2018-11-02T13:45:21.958Z,18.90
2018-11-02T13:47:51.511Z,18.90
2018-11-02T13:50:21.004Z,18.90
2018-11-02T13:52:50.585Z,19.00
2018-11-02T13:55:20.316Z,19.00
2018-11-02T13:57:49.858Z,19.00
2018-11-02T14:00:19.873Z,19.00
2018-11-02T14:02:49.396Z,18.90
2018-11-02T14:05:19.634Z,18.90
2018-11-02T14:07:49.182Z,18.90
2018-11-02T14:10:18.572Z,18.90
2018-11-02T14:12:48.216Z,19.00
2018-11-02T14:15:17.836Z,19.00
2018-11-02T14:17:47.405Z,19.00
2018-11-02T14:20:16.964Z,19.00
2018-11-02T14:22:46.740Z,19.00
2018-11-02T14:25:17.480Z,19.00
2018-11-02T14:27:47.316Z,19.00
2018-11-02T14:30:18.099Z,18.90
2018-11-02T14:32:48.520Z,18.90
2018-11-02T14:35:17.980Z,18.90
2018-11-02T14:37:47.650Z,18.90
2018-11-02T14:40:17.385Z,18.90
2018-11-02T14:42:47.717Z,18.90
2018-11-02T14:45:17.291Z,18.90
2018-11-02T14:47:47.106Z,18.90
2018-11-02T14:50:17.225Z,18.80
2018-11-02T14:52:47.825Z,18.80
2018-11-02T14:55:17.483Z,18.80
2018-11-02T14:57:46.999Z,18.80
2018-11-02T15:00:16.519Z,18.70
2018-11-02T15:02:46.122Z,18.70
2018-11-02T15:05:15.640Z,18.60
2018-11-02T15:07:45.276Z,18.50
2018-11-02T15:10:15.352Z,18.40
2018-11-02T15:12:46.134Z,18.40
2018-11-02T15:15:15.573Z,18.30
2018-11-02T15:17:44.990Z,18.30
2018-11-02T15:20:15.302Z,18.20
2018-11-02T15:22:44.840Z,18.10
2018-11-02T15:25:14.706Z,18.10
2018-11-02T15:27:44.269Z,18.00
2018-11-02T15:30:14.605Z,18.00
2018-11-02T15:32:45.161Z,17.90
2018-11-02T15:35:14.704Z,17.90
2018-11-02T15:37:44.365Z,17.80
2018-11-02T15:40:14.420Z,17.70
2018-11-02T15:42:44.233Z,17.70
2018-11-02T15:45:15.072Z,17.60
2018-11-02T15:47:45.219Z,17.60
2018-11-02T15:50:14.970Z,17.50
2018-11-02T15:52:44.659Z,17.50
2018-11-02T15:55:14.234Z,17.40
2018-11-02T15:57:43.940Z,17.40
2018-11-02T16:00:19.013Z,17.30
2018-11-02T16:02:50.084Z,17.30
2018-11-02T16:05:21.210Z,17.20
2018-11-02T16:07:50.781Z,17.20
2018-11-02T16:10:20.580Z,17.20
2018-11-02T16:12:50.292Z,17.10
2018-11-02T16:15:21.701Z,17.10
2018-11-02T16:17:51.453Z,17.10
2018-11-02T16:20:21.055Z,17.10
2018-11-02T16:22:50.779Z,17.00
2018-11-02T16:25:20.517Z,16.90
2018-11-02T16:27:50.101Z,16.90
2018-11-02T16:30:19.749Z,16.90
2018-11-02T16:32:49.341Z,16.90
2018-11-02T16:35:22.050Z,16.90
2018-11-02T16:37:51.497Z,16.80
2018-11-02T16:40:21.439Z,16.80
2018-11-02T16:42:51.026Z,16.70
2018-11-02T16:45:20.827Z,16.70
2018-11-02T16:47:50.927Z,16.70
2018-11-02T16:50:20.622Z,16.60
2018-11-02T16:52:50.206Z,16.60
2018-11-02T16:55:19.879Z,16.60
2018-11-02T16:57:49.675Z,16.60
2018-11-02T17:00:19.752Z,16.50
2018-11-02T17:02:49.972Z,16.50
2018-11-02T17:05:19.785Z,16.40
2018-11-02T17:07:49.490Z,16.40
2018-11-02T17:10:19.431Z,16.30
2018-11-02T17:12:49.177Z,16.30
2018-11-02T17:15:18.867Z,16.20
2018-11-02T17:17:48.516Z,16.20
2018-11-02T17:20:18.820Z,16.10
2018-11-02T17:22:48.525Z,16.10
2018-11-02T17:25:18.303Z,16.10
2018-11-02T17:27:48.034Z,16.10
2018-11-02T17:30:19.010Z,16.10
2018-11-02T17:32:48.874Z,16.10
2018-11-02T17:35:18.455Z,16.10
2018-11-02T17:37:47.936Z,16.10
2018-11-02T17:40:17.551Z,16.10
2018-11-02T17:42:47.543Z,16.00
2018-11-02T17:45:17.394Z,16.00
2018-11-02T17:47:47.192Z,16.00
2018-11-02T17:50:16.661Z,15.90
2018-11-02T17:52:46.721Z,15.90
2018-11-02T17:55:16.634Z,15.80
2018-11-02T17:57:46.405Z,15.80
2018-11-02T18:00:16.574Z,15.80
2018-11-02T18:02:46.470Z,15.90
2018-11-02T18:05:16.480Z,15.80
2018-11-02T18:07:46.318Z,15.90
2018-11-02T18:10:16.165Z,15.80
2018-11-02T18:12:45.772Z,15.80
2018-11-02T18:15:15.606Z,15.80
2018-11-02T18:17:45.264Z,15.80
2018-11-02T18:20:16.366Z,15.80
2018-11-02T18:22:46.753Z,15.80
2018-11-02T18:25:16.323Z,15.80
2018-11-02T18:27:46.008Z,15.80
2018-11-02T18:30:15.826Z,15.80
2018-11-02T18:32:45.504Z,15.80
2018-11-02T18:35:15.344Z,15.80
2018-11-02T18:37:45.227Z,15.80
2018-11-02T18:40:15.276Z,15.80
2018-11-02T18:42:45.160Z,15.80
2018-11-02T18:45:16.030Z,15.80
2018-11-02T18:47:47.779Z,15.80
2018-11-02T18:50:19.887Z,15.80
2018-11-02T18:52:50.048Z,15.80
2018-11-02T18:55:20.259Z,15.80
2018-11-02T18:57:50.062Z,15.70
2018-11-02T19:00:19.979Z,15.80
2018-11-02T19:02:49.910Z,15.80
2018-11-02T19:05:20.334Z,15.80
2018-11-02T19:07:50.498Z,15.80
2018-11-02T19:10:20.407Z,15.70
2018-11-02T19:12:50.318Z,15.70
2018-11-02T19:15:20.741Z,15.70
2018-11-02T19:17:50.470Z,15.60
2018-11-02T19:20:20.127Z,15.60
2018-11-02T19:22:49.810Z,15.60
2018-11-02T19:25:19.457Z,15.60
2018-11-02T19:27:49.333Z,15.70
2018-11-02T19:30:18.954Z,15.70
2018-11-02T19:32:48.688Z,15.70
2018-11-02T19:35:18.808Z,15.70
2018-11-02T19:37:48.277Z,15.70
2018-11-02T19:40:17.825Z,15.70
2018-11-02T19:42:47.725Z,15.70
2018-11-02T19:45:17.361Z,15.70
2018-11-02T19:47:52.261Z,15.60
2018-11-02T19:50:22.003Z,15.60
2018-11-02T19:52:51.711Z,15.50
2018-11-02T19:55:21.590Z,15.50
2018-11-02T19:57:51.476Z,15.50
2018-11-02T20:00:21.305Z,15.50
2018-11-02T20:02:51.036Z,15.50
2018-11-02T20:05:21.582Z,15.50
2018-11-02T20:07:51.266Z,15.50
2018-11-02T20:10:21.538Z,15.50
2018-11-02T20:12:51.126Z,15.50
2018-11-02T20:15:21.002Z,15.60
2018-11-02T20:17:50.967Z,15.60
2018-11-02T20:20:20.867Z,15.60
2018-11-02T20:22:50.577Z,15.60
2018-11-02T20:25:20.161Z,15.60
2018-11-02T20:27:49.978Z,15.60
2018-11-02T20:30:21.083Z,15.60
2018-11-02T20:32:50.807Z,15.60
2018-11-02T20:35:20.417Z,15.60
2018-11-02T20:37:50.161Z,15.60
2018-11-02T20:40:20.532Z,15.60
2018-11-02T20:42:50.288Z,15.60
2018-11-02T20:45:19.896Z,15.60
2018-11-02T20:47:53.842Z,15.60
2018-11-02T20:50:23.520Z,15.50
2018-11-02T20:52:53.869Z,15.50
2018-11-02T20:55:23.457Z,15.50
2018-11-02T20:57:53.178Z,15.50
2018-11-02T21:00:24.195Z,15.50
2018-11-02T21:02:54.390Z,15.50
2018-11-02T21:05:24.148Z,15.60
2018-11-02T21:07:54.060Z,15.60
2018-11-02T21:10:24.229Z,15.60
2018-11-02T21:12:54.031Z,15.60
2018-11-02T21:15:24.965Z,15.60
2018-11-02T21:17:55.152Z,15.60
2018-11-02T21:20:25.979Z,15.60
2018-11-02T21:22:55.814Z,15.60
2018-11-02T21:25:25.413Z,15.60
2018-11-02T21:27:56.849Z,15.60
2018-11-02T21:30:27.593Z,15.60
2018-11-02T21:32:57.398Z,15.60
2018-11-02T21:35:27.349Z,15.60
2018-11-02T21:37:57.079Z,15.50
2018-11-02T21:40:27.096Z,15.60
2018-11-02T21:42:56.983Z,15.60
2018-11-02T21:45:26.801Z,15.60
2018-11-02T21:47:56.358Z,15.60
2018-11-02T21:50:26.022Z,15.60
2018-11-02T21:52:55.658Z,15.60
2018-11-02T21:55:25.354Z,15.60
2018-11-02T21:57:55.128Z,15.60
2018-11-02T22:00:25.558Z,15.60
2018-11-02T22:02:55.521Z,15.60
2018-11-02T22:05:25.048Z,15.60
2018-11-02T22:07:54.916Z,15.60
2018-11-02T22:10:24.541Z,15.60
2018-11-02T22:12:55.772Z,15.60
2018-11-02T22:15:25.557Z,15.60
2018-11-02T22:17:55.404Z,15.60
2018-11-02T22:20:25.260Z,15.60
2018-11-02T22:22:54.927Z,15.50
2018-11-02T22:25:24.609Z,15.50
2018-11-02T22:27:54.214Z,15.50
2018-11-02T22:30:23.883Z,15.60
2018-11-02T22:32:53.479Z,15.60
2018-11-02T22:35:23.093Z,15.60
2018-11-02T22:37:52.738Z,15.60
2018-11-02T22:40:22.584Z,15.60
2018-11-02T22:42:52.132Z,15.60
2018-11-02T22:45:21.893Z,15.60
2018-11-02T22:47:56.584Z,15.50
2018-11-02T22:50:26.249Z,15.50
2018-11-02T22:52:56.095Z,15.50
2018-11-02T22:55:25.562Z,15.50
2018-11-02T22:57:55.234Z,15.50
2018-11-02T23:00:24.944Z,15.50
2018-11-02T23:02:54.652Z,15.50
2018-11-02T23:05:24.347Z,15.50
2018-11-02T23:07:53.905Z,15.50
2018-11-02T23:10:23.438Z,15.40
2018-11-02T23:12:53.310Z,15.40
2018-11-02T23:15:22.975Z,15.40
2018-11-02T23:17:53.093Z,15.40
2018-11-02T23:20:23.046Z,15.40
2018-11-02T23:22:52.756Z,15.40
2018-11-02T23:25:22.256Z,15.40
2018-11-02T23:27:51.916Z,15.40
2018-11-02T23:30:21.626Z,15.40
2018-11-02T23:32:51.206Z,15.40
2018-11-02T23:35:21.133Z,15.40
2018-11-02T23:37:50.795Z,15.40
2018-11-02T23:40:20.533Z,15.30
2018-11-02T23:42:50.364Z,15.30
2018-11-02T23:45:19.857Z,15.40
2018-11-02T23:47:54.854Z,15.40
2018-11-02T23:50:25.039Z,15.30
2018-11-02T23:52:54.926Z,15.40
2018-11-02T23:55:24.431Z,15.40
2018-11-02T23:57:54.261Z,15.40
